RYR28WC LDZA-EDJA
Flight info
| Callsign | RYR28WC |
|---|---|
| Flight time | N/A |
| Altitude | 34000 |
| Route | PODET DCT ERKIR L608 KPT |
| Aircraft | A320/M-SDE3FGHIRWY/LB1 |
Departure
| Time | 2026-05-07 16:24 |
|---|---|
| Airport | Zagreb Franjo Tuđman International Airport (LDZA) |
Arrival
| Time | N/A |
|---|---|
| Airport | Memmingen Allgau Airport (EDJA) |
| Time | Latitude | Longitude | Altitude | Speed | Heading |
|---|---|---|---|---|---|
| 2026-05-07 16:12 | 45.74264 | 16.07963 | 359 ft | 0 kts | 136° |
| 2026-05-07 16:18 | 45.74274 | 16.07950 | 363 ft | 3 kts | 135° |
| 2026-05-07 16:18 | 45.74288 | 16.07929 | 359 ft | 3 kts | 131° |
| 2026-05-07 16:18 | 45.74300 | 16.07907 | 363 ft | 3 kts | 124° |
| 2026-05-07 16:18 | 45.74311 | 16.07883 | 363 ft | 3 kts | 109° |
| 2026-05-07 16:19 | 45.74314 | 16.07857 | 363 ft | 3 kts | 67° |
| 2026-05-07 16:19 | 45.74310 | 16.07845 | 364 ft | 1 kts | 46° |
| 2026-05-07 16:19 | 45.74308 | 16.07843 | 364 ft | 0 kts | 46° |
| 2026-05-07 16:21 | 45.74322 | 16.07864 | 364 ft | 7 kts | 46° |
| 2026-05-07 16:21 | 45.74376 | 16.07902 | 359 ft | 10 kts | 351° |
| 2026-05-07 16:22 | 45.74437 | 16.07836 | 359 ft | 12 kts | 318° |
| 2026-05-07 16:22 | 45.74502 | 16.07751 | 359 ft | 14 kts | 318° |
| 2026-05-07 16:22 | 45.74576 | 16.07652 | 359 ft | 15 kts | 316° |
| 2026-05-07 16:22 | 45.74659 | 16.07539 | 358 ft | 14 kts | 317° |
| 2026-05-07 16:23 | 45.74684 | 16.07483 | 360 ft | 6 kts | 251° |
| 2026-05-07 16:23 | 45.74604 | 16.07350 | 358 ft | 47 kts | 226° |
| 2026-05-07 16:23 | 45.74223 | 16.06772 | 360 ft | 109 kts | 227° |
| 2026-05-07 16:23 | 45.73588 | 16.05811 | 364 ft | 155 kts | 225° |
| 2026-05-07 16:24 | 45.72819 | 16.04649 | 816 ft | 163 kts | 226° |
| 2026-05-07 16:24 | 45.72280 | 16.03190 | 1431 ft | 171 kts | 257° |
| 2026-05-07 16:24 | 45.72426 | 16.01493 | 1983 ft | 181 kts | 295° |
| 2026-05-07 16:24 | 45.73411 | 16.00123 | 2171 ft | 215 kts | 324° |
| 2026-05-07 16:25 | 45.74742 | 15.98955 | 2486 ft | 240 kts | 326° |
| 2026-05-07 16:25 | 45.76267 | 15.97668 | 2946 ft | 261 kts | 327° |
| 2026-05-07 16:25 | 45.77842 | 15.96369 | 3727 ft | 267 kts | 327° |
| 2026-05-07 16:25 | 45.79479 | 15.95021 | 4655 ft | 269 kts | 326° |
| 2026-05-07 16:26 | 45.81083 | 15.93688 | 5518 ft | 271 kts | 326° |
| 2026-05-07 16:26 | 45.82720 | 15.92312 | 6394 ft | 274 kts | 326° |
| 2026-05-07 16:26 | 45.84308 | 15.90792 | 7170 ft | 275 kts | 314° |
| 2026-05-07 16:26 | 45.85234 | 15.89503 | 7693 ft | 276 kts | 311° |
| 2026-05-07 16:27 | 45.87059 | 15.86910 | 8716 ft | 280 kts | 311° |
| 2026-05-07 16:27 | 45.88450 | 15.84929 | 9497 ft | 284 kts | 311° |
| 2026-05-07 16:27 | 45.89861 | 15.82920 | 10211 ft | 288 kts | 311° |
| 2026-05-07 16:27 | 45.91355 | 15.80782 | 10470 ft | 311 kts | 311° |
| 2026-05-07 16:28 | 45.92936 | 15.78512 | 10641 ft | 332 kts | 311° |
| 2026-05-07 16:28 | 45.94599 | 15.76135 | 11137 ft | 341 kts | 311° |
| 2026-05-07 16:28 | 45.96294 | 15.73724 | 11767 ft | 345 kts | 311° |
| 2026-05-07 16:28 | 45.98012 | 15.71283 | 12426 ft | 349 kts | 311° |
| 2026-05-07 16:29 | 45.99725 | 15.68847 | 13070 ft | 353 kts | 311° |
| 2026-05-07 16:29 | 46.01499 | 15.66315 | 13733 ft | 356 kts | 311° |
| 2026-05-07 16:29 | 46.03265 | 15.63790 | 14310 ft | 360 kts | 311° |
| 2026-05-07 16:29 | 46.05042 | 15.61240 | 14892 ft | 362 kts | 310° |
| 2026-05-07 16:30 | 46.06831 | 15.58662 | 15463 ft | 365 kts | 310° |
| 2026-05-07 16:30 | 46.08635 | 15.56063 | 16032 ft | 368 kts | 310° |
| 2026-05-07 16:30 | 46.10455 | 15.53446 | 16611 ft | 372 kts | 310° |
| 2026-05-07 16:30 | 46.12291 | 15.50800 | 17190 ft | 375 kts | 310° |
| 2026-05-07 16:31 | 46.14142 | 15.48126 | 17762 ft | 378 kts | 310° |
| 2026-05-07 16:31 | 46.16010 | 15.45428 | 18329 ft | 382 kts | 310° |
| 2026-05-07 16:31 | 46.17896 | 15.42711 | 18819 ft | 385 kts | 310° |
| 2026-05-07 16:31 | 46.19798 | 15.39967 | 19345 ft | 388 kts | 310° |
| 2026-05-07 16:32 | 46.21710 | 15.37202 | 19901 ft | 390 kts | 310° |
| 2026-05-07 16:32 | 46.23629 | 15.34420 | 20448 ft | 393 kts | 310° |
| 2026-05-07 16:32 | 46.25559 | 15.31612 | 20987 ft | 395 kts | 309° |
| 2026-05-07 16:32 | 46.27504 | 15.28783 | 21501 ft | 398 kts | 309° |
| 2026-05-07 16:33 | 46.29462 | 15.25936 | 22005 ft | 401 kts | 309° |
| 2026-05-07 16:33 | 46.31435 | 15.23066 | 22499 ft | 404 kts | 309° |
| 2026-05-07 16:33 | 46.33419 | 15.20175 | 22957 ft | 406 kts | 309° |
| 2026-05-07 16:33 | 46.35417 | 15.17265 | 23452 ft | 409 kts | 309° |
| 2026-05-07 16:34 | 46.37431 | 15.14329 | 23860 ft | 412 kts | 309° |
| 2026-05-07 16:34 | 46.39451 | 15.11377 | 24271 ft | 414 kts | 309° |
| 2026-05-07 16:34 | 46.41482 | 15.08404 | 24677 ft | 415 kts | 309° |
| 2026-05-07 16:34 | 46.43515 | 15.05419 | 25062 ft | 417 kts | 309° |
| 2026-05-07 16:35 | 46.45556 | 15.02420 | 25446 ft | 418 kts | 309° |
| 2026-05-07 16:35 | 46.47604 | 14.99412 | 25823 ft | 420 kts | 309° |
| 2026-05-07 16:35 | 46.49662 | 14.96387 | 26191 ft | 422 kts | 309° |
| 2026-05-07 16:35 | 46.51723 | 14.93351 | 26532 ft | 422 kts | 308° |
| 2026-05-07 16:36 | 46.53790 | 14.90307 | 26866 ft | 425 kts | 309° |
| 2026-05-07 16:36 | 46.55839 | 14.87288 | 27206 ft | 427 kts | 309° |
| 2026-05-07 16:36 | 46.57929 | 14.84202 | 27558 ft | 429 kts | 309° |
| 2026-05-07 16:36 | 46.60024 | 14.81105 | 27910 ft | 431 kts | 309° |
| 2026-05-07 16:37 | 46.62130 | 14.77986 | 28273 ft | 433 kts | 309° |
| 2026-05-07 16:37 | 46.64238 | 14.74855 | 28609 ft | 435 kts | 308° |
| 2026-05-07 16:37 | 46.66127 | 14.71457 | 28950 ft | 431 kts | 301° |
| 2026-05-07 16:37 | 46.67899 | 14.67937 | 29345 ft | 431 kts | 301° |
| 2026-05-07 16:38 | 46.69664 | 14.64412 | 29862 ft | 429 kts | 300° |
| 2026-05-07 16:38 | 46.71410 | 14.60906 | 30341 ft | 427 kts | 300° |
| 2026-05-07 16:38 | 46.73152 | 14.57402 | 30771 ft | 426 kts | 300° |
| 2026-05-07 16:38 | 46.74885 | 14.53910 | 31195 ft | 425 kts | 300° |
| 2026-05-07 16:39 | 46.76617 | 14.50419 | 31605 ft | 424 kts | 300° |
| 2026-05-07 16:39 | 46.78342 | 14.46941 | 32018 ft | 423 kts | 300° |
| 2026-05-07 16:39 | 46.80065 | 14.43464 | 32420 ft | 423 kts | 300° |
| 2026-05-07 16:39 | 46.81787 | 14.39986 | 32828 ft | 422 kts | 300° |
| 2026-05-07 16:40 | 46.83504 | 14.36514 | 33234 ft | 421 kts | 300° |
| 2026-05-07 16:40 | 46.85217 | 14.33045 | 33655 ft | 421 kts | 300° |
| 2026-05-07 16:40 | 46.86928 | 14.29581 | 33917 ft | 421 kts | 300° |
| 2026-05-07 16:41 | 46.90384 | 14.22559 | 33965 ft | 428 kts | 300° |
| 2026-05-07 16:41 | 46.93861 | 14.15483 | 33962 ft | 429 kts | 300° |
| 2026-05-07 16:42 | 46.97334 | 14.08394 | 33970 ft | 428 kts | 300° |
| 2026-05-07 16:42 | 47.00803 | 14.01302 | 33983 ft | 428 kts | 300° |
| 2026-05-07 16:43 | 47.04262 | 13.94211 | 33989 ft | 427 kts | 300° |
| 2026-05-07 16:43 | 47.07156 | 13.88260 | 34003 ft | 428 kts | 300° |
| 2026-05-07 16:44 | 47.10603 | 13.81151 | 34006 ft | 427 kts | 300° |
| 2026-05-07 16:44 | 47.14040 | 13.74033 | 34019 ft | 427 kts | 299° |
| 2026-05-07 16:45 | 47.17477 | 13.66908 | 34027 ft | 427 kts | 299° |
| 2026-05-07 16:45 | 47.20921 | 13.59770 | 34032 ft | 429 kts | 299° |
| 2026-05-07 16:46 | 47.24356 | 13.52609 | 34027 ft | 428 kts | 298° |
| 2026-05-07 16:46 | 47.27788 | 13.45430 | 34022 ft | 429 kts | 298° |
| 2026-05-07 16:47 | 47.31237 | 13.38220 | 34028 ft | 431 kts | 298° |
| 2026-05-07 16:47 | 47.34689 | 13.30986 | 34039 ft | 432 kts | 298° |
| 2026-05-07 16:48 | 47.38135 | 13.23720 | 34038 ft | 432 kts | 298° |
| 2026-05-07 16:48 | 47.41579 | 13.16447 | 34039 ft | 432 kts | 298° |
| 2026-05-07 16:49 | 47.45018 | 13.09175 | 34033 ft | 432 kts | 298° |
| 2026-05-07 16:49 | 47.48453 | 13.01880 | 34039 ft | 433 kts | 298° |
| 2026-05-07 16:50 | 47.51889 | 12.94566 | 34037 ft | 434 kts | 298° |
| 2026-05-07 16:50 | 47.55331 | 12.87232 | 34047 ft | 434 kts | 298° |
| 2026-05-07 16:51 | 47.58761 | 12.79907 | 34051 ft | 432 kts | 297° |
| 2026-05-07 16:51 | 47.62180 | 12.72581 | 34056 ft | 431 kts | 297° |
| 2026-05-07 16:52 | 47.65582 | 12.65272 | 34057 ft | 430 kts | 297° |
| 2026-05-07 16:52 | 47.68969 | 12.57978 | 34060 ft | 429 kts | 297° |
| 2026-05-07 16:53 | 47.72337 | 12.50695 | 34061 ft | 428 kts | 297° |
| 2026-05-07 16:53 | 47.75698 | 12.43398 | 34055 ft | 427 kts | 297° |
| 2026-05-07 16:54 | 47.79047 | 12.36098 | 34050 ft | 427 kts | 297° |
| 2026-05-07 16:54 | 47.82395 | 12.28796 | 34055 ft | 428 kts | 297° |
| 2026-05-07 16:55 | 47.85752 | 12.21481 | 34051 ft | 428 kts | 297° |
| 2026-05-07 16:55 | 47.89099 | 12.14165 | 34054 ft | 427 kts | 297° |
| 2026-05-07 16:56 | 47.92432 | 12.06843 | 34053 ft | 427 kts | 297° |
| 2026-05-07 16:56 | 47.97421 | 11.95855 | 34055 ft | 426 kts | 297° |
| 2026-05-07 16:57 | 48.00737 | 11.88522 | 34051 ft | 426 kts | 297° |
| 2026-05-07 16:57 | 48.04044 | 11.81191 | 34052 ft | 426 kts | 297° |
| 2026-05-07 16:58 | 48.07678 | 11.74122 | 34037 ft | 432 kts | 304° |
| 2026-05-07 16:58 | 48.11637 | 11.67328 | 34034 ft | 434 kts | 304° |
| 2026-05-07 16:59 | 48.15637 | 11.60531 | 34030 ft | 435 kts | 304° |
| 2026-05-07 16:59 | 48.19620 | 11.53691 | 34029 ft | 436 kts | 304° |
| 2026-05-07 17:00 | 48.23590 | 11.46804 | 34027 ft | 437 kts | 304° |
| 2026-05-07 17:00 | 48.27566 | 11.39890 | 34026 ft | 438 kts | 304° |
| 2026-05-07 17:01 | 48.31552 | 11.32961 | 34031 ft | 439 kts | 304° |
| 2026-05-07 17:01 | 48.35537 | 11.26001 | 34040 ft | 440 kts | 304° |
| 2026-05-07 17:02 | 48.39531 | 11.19015 | 34050 ft | 441 kts | 304° |
| 2026-05-07 17:02 | 48.43531 | 11.12016 | 34052 ft | 441 kts | 304° |
| 2026-05-07 17:03 | 48.47534 | 11.04982 | 34064 ft | 442 kts | 303° |
| 2026-05-07 17:03 | 48.51530 | 10.97927 | 34050 ft | 443 kts | 303° |
| 2026-05-07 17:04 | 48.55535 | 10.90847 | 34053 ft | 444 kts | 303° |
| 2026-05-07 17:04 | 48.59541 | 10.83747 | 34067 ft | 444 kts | 303° |
| 2026-05-07 17:05 | 48.63549 | 10.76622 | 34054 ft | 445 kts | 303° |
| 2026-05-07 17:05 | 48.67563 | 10.69472 | 34063 ft | 446 kts | 303° |
| 2026-05-07 17:06 | 48.71577 | 10.62299 | 34070 ft | 447 kts | 303° |
| 2026-05-07 17:06 | 48.75580 | 10.55082 | 33629 ft | 446 kts | 300° |
| 2026-05-07 17:07 | 48.77157 | 10.51097 | 32490 ft | 441 kts | 286° |
| 2026-05-07 17:07 | 48.77979 | 10.46639 | 31290 ft | 441 kts | 275° |
| 2026-05-07 17:07 | 48.78531 | 10.42013 | 30249 ft | 448 kts | 275° |
| 2026-05-07 17:07 | 48.79089 | 10.37399 | 29691 ft | 442 kts | 275° |
| 2026-05-07 17:08 | 48.79644 | 10.32850 | 29141 ft | 436 kts | 276° |
| 2026-05-07 17:08 | 48.80192 | 10.28362 | 28610 ft | 430 kts | 276° |
| 2026-05-07 17:08 | 48.80728 | 10.23933 | 28083 ft | 424 kts | 276° |
| 2026-05-07 17:08 | 48.81253 | 10.19556 | 27565 ft | 419 kts | 276° |
| 2026-05-07 17:09 | 48.81767 | 10.15228 | 27060 ft | 415 kts | 276° |
| 2026-05-07 17:09 | 48.82274 | 10.10940 | 26557 ft | 410 kts | 276° |
| 2026-05-07 17:09 | 48.82771 | 10.06704 | 26076 ft | 406 kts | 276° |
| 2026-05-07 17:09 | 48.83266 | 10.02497 | 25597 ft | 403 kts | 276° |
| 2026-05-07 17:10 | 48.83757 | 9.98329 | 25131 ft | 400 kts | 277° |
| 2026-05-07 17:10 | 48.84244 | 9.94185 | 24675 ft | 398 kts | 277° |
| 2026-05-07 17:10 | 48.84729 | 9.90059 | 24226 ft | 396 kts | 277° |
| 2026-05-07 17:10 | 48.85211 | 9.85953 | 23788 ft | 395 kts | 277° |
| 2026-05-07 17:11 | 48.85688 | 9.81859 | 23303 ft | 393 kts | 277° |
| 2026-05-07 17:11 | 48.86159 | 9.77781 | 22859 ft | 391 kts | 277° |
| 2026-05-07 17:11 | 48.86624 | 9.73731 | 22420 ft | 388 kts | 277° |
| 2026-05-07 17:11 | 48.87084 | 9.69710 | 21966 ft | 386 kts | 277° |
| 2026-05-07 17:12 | 48.87543 | 9.65709 | 21520 ft | 383 kts | 277° |
| 2026-05-07 17:12 | 48.87996 | 9.61736 | 21062 ft | 381 kts | 277° |
| 2026-05-07 17:12 | 48.88446 | 9.57785 | 20595 ft | 378 kts | 277° |
| 2026-05-07 17:12 | 48.88893 | 9.53855 | 20124 ft | 376 kts | 277° |
| 2026-05-07 17:13 | 48.89342 | 9.49895 | 19642 ft | 375 kts | 277° |
| 2026-05-07 17:13 | 48.89776 | 9.46057 | 19175 ft | 373 kts | 277° |
| 2026-05-07 17:13 | 48.90213 | 9.42184 | 18701 ft | 371 kts | 277° |
| 2026-05-07 17:13 | 48.90645 | 9.38328 | 18206 ft | 370 kts | 277° |
| 2026-05-07 17:14 | 48.91073 | 9.34489 | 17690 ft | 367 kts | 278° |
| 2026-05-07 17:14 | 48.91497 | 9.30692 | 17214 ft | 363 kts | 278° |
| 2026-05-07 17:14 | 48.91917 | 9.26933 | 16739 ft | 359 kts | 278° |
| 2026-05-07 17:14 | 48.92339 | 9.23162 | 16262 ft | 355 kts | 278° |
| 2026-05-07 17:15 | 48.92744 | 9.19521 | 15799 ft | 352 kts | 278° |
| 2026-05-07 17:15 | 48.93145 | 9.15863 | 15333 ft | 349 kts | 278° |
| 2026-05-07 17:15 | 48.93540 | 9.12233 | 14866 ft | 347 kts | 277° |
| 2026-05-07 17:15 | 48.93930 | 9.08627 | 14412 ft | 344 kts | 278° |
| 2026-05-07 17:16 | 48.94319 | 9.05043 | 13956 ft | 342 kts | 278° |
| 2026-05-07 17:16 | 48.94708 | 9.01479 | 13461 ft | 340 kts | 278° |
| 2026-05-07 17:16 | 48.95091 | 8.97948 | 13003 ft | 337 kts | 278° |
| 2026-05-07 17:16 | 48.95469 | 8.94449 | 12553 ft | 333 kts | 278° |
| 2026-05-07 17:17 | 48.95847 | 8.90938 | 12099 ft | 331 kts | 278° |
| 2026-05-07 17:17 | 48.96214 | 8.87544 | 11666 ft | 328 kts | 278° |
| 2026-05-07 17:17 | 48.96583 | 8.84126 | 11228 ft | 327 kts | 278° |
| 2026-05-07 17:17 | 48.96951 | 8.80677 | 10612 ft | 325 kts | 277° |
| 2026-05-07 17:18 | 48.97309 | 8.77291 | 10204 ft | 322 kts | 278° |
| 2026-05-07 17:18 | 48.97654 | 8.74037 | 10068 ft | 300 kts | 278° |
| 2026-05-07 17:18 | 48.97980 | 8.70990 | 9761 ft | 286 kts | 278° |
| 2026-05-07 17:18 | 48.98295 | 8.68024 | 9464 ft | 281 kts | 278° |
| 2026-05-07 17:19 | 48.98603 | 8.65105 | 9321 ft | 279 kts | 277° |
| 2026-05-07 17:19 | 48.98913 | 8.62161 | 8907 ft | 282 kts | 278° |
| 2026-05-07 17:19 | 48.99216 | 8.59218 | 8554 ft | 281 kts | 276° |
| 2026-05-07 17:19 | 48.99238 | 8.56292 | 8095 ft | 274 kts | 266° |
| 2026-05-07 17:20 | 48.99130 | 8.53447 | 7515 ft | 272 kts | 266° |
| 2026-05-07 17:20 | 48.99058 | 8.51512 | 7127 ft | 270 kts | 266° |
| 2026-05-07 17:20 | 48.98956 | 8.48673 | 6590 ft | 267 kts | 266° |
| 2026-05-07 17:20 | 48.98856 | 8.45868 | 6046 ft | 265 kts | 266° |
| 2026-05-07 17:21 | 48.98757 | 8.43081 | 5492 ft | 262 kts | 266° |
| 2026-05-07 17:21 | 48.98659 | 8.40371 | 5209 ft | 249 kts | 266° |
| 2026-05-07 17:21 | 48.98566 | 8.37821 | 5083 ft | 233 kts | 266° |
| 2026-05-07 17:21 | 48.98476 | 8.35440 | 5016 ft | 219 kts | 266° |
| 2026-05-07 17:22 | 48.98389 | 8.33166 | 4943 ft | 213 kts | 265° |
| 2026-05-07 17:22 | 48.98304 | 8.30933 | 4869 ft | 211 kts | 265° |
| 2026-05-07 17:22 | 48.98131 | 8.28729 | 4772 ft | 210 kts | 252° |
| 2026-05-07 17:22 | 48.97458 | 8.26775 | 4713 ft | 211 kts | 231° |
| 2026-05-07 17:23 | 48.96325 | 8.25357 | 4521 ft | 213 kts | 214° |
| 2026-05-07 17:23 | 48.95078 | 8.24186 | 4278 ft | 209 kts | 214° |
| 2026-05-07 17:23 | 48.93857 | 8.23039 | 4002 ft | 202 kts | 214° |
| 2026-05-07 17:23 | 48.92694 | 8.21942 | 3786 ft | 193 kts | 214° |
| 2026-05-07 17:24 | 48.91561 | 8.20872 | 3504 ft | 190 kts | 214° |
| 2026-05-07 17:24 | 48.90462 | 8.19836 | 3253 ft | 180 kts | 214° |
| 2026-05-07 17:24 | 48.89431 | 8.18864 | 3026 ft | 168 kts | 214° |
| 2026-05-07 17:24 | 48.88476 | 8.17964 | 2822 ft | 153 kts | 214° |
| 2026-05-07 17:25 | 48.87614 | 8.17152 | 2627 ft | 141 kts | 214° |
| 2026-05-07 17:25 | 48.86792 | 8.16377 | 2443 ft | 137 kts | 214° |
| 2026-05-07 17:25 | 48.85979 | 8.15609 | 2254 ft | 137 kts | 214° |
| 2026-05-07 17:25 | 48.85176 | 8.14853 | 2027 ft | 135 kts | 213° |
| 2026-05-07 17:26 | 48.84370 | 8.14091 | 1824 ft | 136 kts | 214° |
| 2026-05-07 17:26 | 48.83572 | 8.13325 | 1654 ft | 136 kts | 213° |
| 2026-05-07 17:26 | 48.82763 | 8.12573 | 1463 ft | 136 kts | 211° |
| 2026-05-07 17:26 | 48.81945 | 8.11821 | 1209 ft | 139 kts | 211° |
| 2026-05-07 17:27 | 48.81116 | 8.11040 | 980 ft | 142 kts | 211° |
| 2026-05-07 17:27 | 48.80264 | 8.10242 | 766 ft | 146 kts | 212° |
| 2026-05-07 17:27 | 48.79391 | 8.09418 | 548 ft | 149 kts | 212° |
| 2026-05-07 17:27 | 48.78511 | 8.08593 | 416 ft | 144 kts | 212° |
| 2026-05-07 17:28 | 48.77813 | 8.07935 | 412 ft | 79 kts | 212° |
| 2026-05-07 17:28 | 48.77493 | 8.07635 | 411 ft | 33 kts | 211° |
| 2026-05-07 17:28 | 48.77379 | 8.07557 | 413 ft | 12 kts | 172° |
| 2026-05-07 17:28 | 48.77322 | 8.07662 | 412 ft | 15 kts | 120° |
| 2026-05-07 17:29 | 48.77307 | 8.07751 | 412 ft | 8 kts | 56° |
| 2026-05-07 17:29 | 48.77360 | 8.07803 | 412 ft | 10 kts | 30° |
| 2026-05-07 17:29 | 48.77428 | 8.07867 | 409 ft | 13 kts | 32° |
| 2026-05-07 17:29 | 48.77512 | 8.07946 | 412 ft | 15 kts | 32° |
| 2026-05-07 17:30 | 48.77610 | 8.08037 | 412 ft | 18 kts | 31° |
| 2026-05-07 17:30 | 48.77722 | 8.08143 | 412 ft | 20 kts | 32° |
| 2026-05-07 17:30 | 48.77790 | 8.08227 | 412 ft | 10 kts | 79° |
| 2026-05-07 17:30 | 48.77758 | 8.08332 | 412 ft | 12 kts | 122° |
| 2026-05-07 17:31 | 48.77770 | 8.08450 | 412 ft | 14 kts | 39° |
| 2026-05-07 17:31 | 48.77860 | 8.08533 | 412 ft | 16 kts | 31° |
| 2026-05-07 17:31 | 48.77958 | 8.08630 | 412 ft | 15 kts | 28° |
| 2026-05-07 17:31 | 48.78028 | 8.08695 | 412 ft | 12 kts | 33° |
| 2026-05-07 17:32 | 48.78103 | 8.08750 | 412 ft | 8 kts | 27° |
| 2026-05-07 17:32 | 48.78137 | 8.08783 | 412 ft | 5 kts | 38° |
| 2026-05-07 17:32 | 48.78140 | 8.08829 | 412 ft | 5 kts | 108° |
| 2026-05-07 17:32 | 48.78133 | 8.08846 | 412 ft | 2 kts | 135° |
| 2026-05-07 17:33 | 48.78120 | 8.08857 | 411 ft | 0 kts | 148° |